createdAt,value
2023-02-25T00:00:00.000Z,6.6
2023-02-25T00:15:00.000Z,6.29
2023-02-25T00:30:00.000Z,5.9
2023-02-25T00:45:00.000Z,5.65
2023-02-25T01:00:00.000Z,5.35
2023-02-25T01:15:00.000Z,4.62
2023-02-25T01:30:00.000Z,3.94
2023-02-25T01:45:00.000Z,3.75
2023-02-25T02:00:00.000Z,3.74
2023-02-25T02:15:00.000Z,3.7
2023-02-25T02:30:00.000Z,3.62
2023-02-25T02:45:00.000Z,3.39
2023-02-25T03:00:00.000Z,3.67
2023-02-25T03:15:00.000Z,3.97
2023-02-25T03:30:00.000Z,4.14
2023-02-25T03:45:00.000Z,4.16
2023-02-25T04:00:00.000Z,4.35
2023-02-25T04:15:00.000Z,4.32
2023-02-25T04:30:00.000Z,4.34
2023-02-25T04:45:00.000Z,4.43
2023-02-25T05:00:00.000Z,4.51
2023-02-25T05:15:00.000Z,4.55
2023-02-25T05:30:00.000Z,4.6
2023-02-25T05:45:00.000Z,4.62
2023-02-25T06:00:00.000Z,4.61
2023-02-25T06:15:00.000Z,4.45
2023-02-25T06:30:00.000Z,4.34
2023-02-25T06:45:00.000Z,3.64
2023-02-25T07:00:00.000Z,3.08
2023-02-25T07:15:00.000Z,3.31
2023-02-25T07:30:00.000Z,3.36
2023-02-25T07:45:00.000Z,3.61
2023-02-25T08:00:00.000Z,3.56
2023-02-25T08:15:00.000Z,3.21
2023-02-25T08:30:00.000Z,3.49
2023-02-25T08:45:00.000Z,3.62
2023-02-25T09:00:00.000Z,4.02
2023-02-25T09:15:00.000Z,5.11
2023-02-25T09:30:00.000Z,5.76
2023-02-25T09:45:00.000Z,5.77
2023-02-25T10:00:00.000Z,5.48
2023-02-25T10:15:00.000Z,5.42
2023-02-25T10:30:00.000Z,5.36
2023-02-25T10:45:00.000Z,5.25
2023-02-25T11:00:00.000Z,5.61
2023-02-25T11:15:00.000Z,5.41
2023-02-25T11:30:00.000Z,5.7
2023-02-25T11:45:00.000Z,5.2
2023-02-25T12:00:00.000Z,4.28
2023-02-25T12:15:00.000Z,4.16
2023-02-25T12:30:00.000Z,4.4
2023-02-25T12:45:00.000Z,4.88
2023-02-25T13:00:00.000Z,5.24
2023-02-25T13:15:00.000Z,5.43
2023-02-25T13:30:00.000Z,5.36
2023-02-25T13:45:00.000Z,5.42
2023-02-25T14:00:00.000Z,5.38
2023-02-25T14:15:00.000Z,5.28
2023-02-25T14:30:00.000Z,5.18
2023-02-25T14:45:00.000Z,5.07
2023-02-25T15:00:00.000Z,4.94
2023-02-25T15:15:00.000Z,4.95
2023-02-25T15:30:00.000Z,4.68
2023-02-25T15:45:00.000Z,4.51
2023-02-25T16:00:00.000Z,4.45
2023-02-25T16:15:00.000Z,4.35
2023-02-25T16:30:00.000Z,4.19
2023-02-25T16:45:00.000Z,4.02
2023-02-25T17:00:00.000Z,3.84
2023-02-25T17:15:00.000Z,3.97
2023-02-25T17:30:00.000Z,3.98
2023-02-25T17:45:00.000Z,4.06
2023-02-25T18:00:00.000Z,4.19
2023-02-25T18:15:00.000Z,4.26
2023-02-25T18:30:00.000Z,4.26
2023-02-25T18:45:00.000Z,4.31
2023-02-25T19:00:00.000Z,4.21
2023-02-25T19:15:00.000Z,3.56
2023-02-25T19:30:00.000Z,3.08
2023-02-25T19:45:00.000Z,2.9
2023-02-25T20:00:00.000Z,2.85
2023-02-25T20:15:00.000Z,2.55
2023-02-25T20:30:00.000Z,2.51
2023-02-25T20:45:00.000Z,2.36
2023-02-25T21:00:00.000Z,2.32
2023-02-25T21:15:00.000Z,2.42
2023-02-25T21:30:00.000Z,2.53
2023-02-25T21:45:00.000Z,2.55
2023-02-25T22:00:00.000Z,2.5
2023-02-25T22:15:00.000Z,2.31
2023-02-25T22:30:00.000Z,2.22
2023-02-25T22:45:00.000Z,2.12
2023-02-25T23:00:00.000Z,2.18
2023-02-25T23:15:00.000Z,2.17
2023-02-25T23:30:00.000Z,2.1
2023-02-25T23:45:00.000Z,2.1
